Time;durP1;ratioP1;P1;durP2;ratioP2;P2;SDS_P1;SDS_P2;PMS_P1;PMS_P2;Temp;Humidity;BMP_temperature;BMP_pressure;BME280_temperature;BME280_humidity;BME280_pressure;Samples;Min_cycle;Max_cycle;Signal;HPM_P1;HPM_P2
2021/10/07 00:00:35;;;;;;;21.83;7.50;;;10.80;99.40;;;;;;5057783;28;20039;-74
2021/10/07 00:03:00;;;;;;;22.67;7.33;;;10.80;99.50;;;;;;5072680;28;20028;-74
2021/10/07 00:05:26;;;;;;;29.80;7.60;;;10.90;99.50;;;;;;5055899;28;20392;-74
2021/10/07 00:07:52;;;;;;;21.17;7.50;;;10.90;99.60;;;;;;5056126;28;20067;-74
2021/10/07 00:10:17;;;;;;;26.40;6.97;;;10.80;99.60;;;;;;5073164;28;20052;-74
2021/10/07 00:12:43;;;;;;;88.03;7.97;;;10.80;99.70;;;;;;5081054;28;20092;-74
2021/10/07 00:15:09;;;;;;;48.20;7.77;;;10.80;99.70;;;;;;5089380;28;20111;-74
2021/10/07 00:17:35;;;;;;;61.63;8.17;;;10.80;99.70;;;;;;5072087;28;20037;-74
2021/10/07 00:20:03;;;;;;;46.03;7.20;;;10.80;99.80;;;;;;5073858;28;20037;-74
2021/10/07 00:22:28;;;;;;;36.40;6.50;;;10.80;99.80;;;;;;5074680;28;20108;-74
2021/10/07 00:24:54;;;;;;;43.63;6.97;;;10.80;99.80;;;;;;5093736;28;20059;-74
2021/10/07 00:27:20;;;;;;;47.90;7.80;;;10.80;99.70;;;;;;5059088;28;20044;-74
2021/10/07 00:29:47;;;;;;;48.03;7.43;;;10.80;99.70;;;;;;5092503;28;20024;-74
2021/10/07 00:37:23;;;;;;;58.35;8.70;;;10.80;99.70;;;;;;5093115;28;20047;-74
2021/10/07 00:39:50;;;;;;;48.07;8.80;;;10.80;99.80;;;;;;5092283;28;20035;-74
2021/10/07 00:42:16;;;;;;;42.55;8.00;;;10.80;99.80;;;;;;5092276;28;20084;-74
2021/10/07 00:44:44;;;;;;;64.17;8.27;;;10.90;99.90;;;;;;5075752;28;20055;-74
2021/10/07 00:47:11;;;;;;;37.10;8.63;;;10.90;99.90;;;;;;5075372;28;20055;-74
2021/10/07 00:49:40;;;;;;;49.90;7.87;;;10.90;99.90;;;;;;5075275;28;20388;-74
2021/10/07 00:52:10;;;;;;;25.73;7.30;;;10.90;99.90;;;;;;5093375;28;20479;-74
2021/10/07 00:54:37;;;;;;;55.00;8.23;;;10.90;99.90;;;;;;5092467;28;20031;-74
2021/10/07 00:57:05;;;;;;;43.72;8.07;;;10.90;99.90;;;;;;5093982;28;20024;-74
2021/10/07 00:59:33;;;;;;;25.88;7.47;;;11.00;99.90;;;;;;5093641;28;20035;-74
2021/10/07 01:02:05;;;;;;;41.97;8.15;;;11.00;99.90;;;;;;5092564;28;20449;-74
2021/10/07 01:04:31;;;;;;;47.20;8.10;;;11.00;99.90;;;;;;5092333;28;20413;-74
2021/10/07 01:06:56;;;;;;;33.50;7.57;;;11.00;99.90;;;;;;5093348;28;20032;-74
2021/10/07 01:09:22;;;;;;;46.65;7.70;;;11.00;99.90;;;;;;5092296;28;20028;-74
2021/10/07 01:11:48;;;;;;;60.08;7.75;;;11.10;99.90;;;;;;5075689;28;20035;-75
2021/10/07 01:14:17;;;;;;;51.65;7.25;;;11.00;99.90;;;;;;5075310;28;20062;-74
2021/10/07 01:16:43;;;;;;;69.47;7.82;;;11.10;99.90;;;;;;5074322;28;20032;-74
2021/10/07 01:19:08;;;;;;;34.30;7.03;;;11.10;99.90;;;;;;5058613;28;20028;-74
2021/10/07 01:21:34;;;;;;;68.28;7.28;;;11.10;99.90;;;;;;5092022;28;20051;-74
2021/10/07 01:23:59;;;;;;;50.78;7.95;;;11.10;99.90;;;;;;5090385;28;20380;-74
2021/10/07 01:26:26;;;;;;;47.28;6.97;;;11.10;99.90;;;;;;5093236;28;20093;-74
2021/10/07 01:28:52;;;;;;;49.10;8.00;;;11.10;99.90;;;;;;5092978;28;20115;-74
2021/10/07 01:31:18;;;;;;;74.35;8.30;;;11.10;99.90;;;;;;5092349;28;20051;-74
2021/10/07 01:33:44;;;;;;;39.90;7.63;;;11.10;99.90;;;;;;5093615;28;20056;-74
2021/10/07 01:36:10;;;;;;;46.53;8.07;;;11.10;99.90;;;;;;5075265;28;20028;-74
2021/10/07 01:38:36;;;;;;;26.55;6.75;;;11.10;99.90;;;;;;5092018;28;20024;-74
2021/10/07 01:41:02;;;;;;;28.70;7.35;;;11.20;99.90;;;;;;5091815;28;20426;-74
2021/10/07 01:43:28;;;;;;;31.23;7.18;;;11.30;99.90;;;;;;5091996;28;20055;-74
2021/10/07 01:45:54;;;;;;;42.28;7.68;;;11.20;99.90;;;;;;5093476;28;20156;-74
2021/10/07 01:48:19;;;;;;;33.97;7.63;;;11.20;99.90;;;;;;5091662;28;20047;-74
2021/10/07 01:50:45;;;;;;;33.97;7.30;;;11.30;99.90;;;;;;5091890;28;20032;-74
2021/10/07 01:53:11;;;;;;;32.10;7.20;;;11.20;99.90;;;;;;5075202;28;20031;-75
2021/10/07 01:55:37;;;;;;;29.63;7.75;;;11.30;99.90;;;;;;5075251;28;20024;-74
2021/10/07 01:58:04;;;;;;;28.90;8.20;;;11.30;99.90;;;;;;5092080;28;20695;-74
2021/10/07 02:00:29;;;;;;;40.75;9.18;;;11.30;99.90;;;;;;5091887;28;20040;-74
2021/10/07 02:02:55;;;;;;;32.45;8.50;;;11.30;99.90;;;;;;5094701;28;20039;-74
2021/10/07 02:05:21;;;;;;;37.20;8.00;;;11.40;99.90;;;;;;5095283;28;20040;-74
2021/10/07 02:07:46;;;;;;;49.05;9.52;;;11.40;99.90;;;;;;5061652;28;20036;-75
2021/10/07 02:10:14;;;;;;;43.45;9.85;;;11.40;99.90;;;;;;5061642;28;20031;-75
2021/10/07 02:12:42;;;;;;;34.53;8.57;;;11.40;99.90;;;;;;5095539;28;20051;-75
2021/10/07 02:15:08;;;;;;;24.20;7.55;;;11.40;99.90;;;;;;5078585;28;20032;-75
2021/10/07 02:17:34;;;;;;;26.17;8.52;;;11.40;99.90;;;;;;5095383;28;20086;-75
2021/10/07 02:19:59;;;;;;;35.08;8.15;;;11.50;99.90;;;;;;5095123;28;20201;-75
2021/10/07 02:22:25;;;;;;;16.52;7.68;;;11.50;99.90;;;;;;5094803;28;20490;-75
2021/10/07 02:24:51;;;;;;;23.05;6.85;;;11.40;99.90;;;;;;5078108;28;20081;-75
2021/10/07 02:27:16;;;;;;;41.47;7.47;;;11.50;99.90;;;;;;5094503;28;20048;-75
2021/10/07 02:29:42;;;;;;;30.42;7.53;;;11.50;99.90;;;;;;5096148;28;20477;-75
2021/10/07 02:32:08;;;;;;;35.67;7.85;;;11.40;99.90;;;;;;5094813;28;20072;-75
2021/10/07 02:34:33;;;;;;;33.13;8.25;;;11.40;99.90;;;;;;5096070;28;20047;-75
2021/10/07 02:36:59;;;;;;;40.75;9.23;;;11.40;99.90;;;;;;5061296;28;20032;-75
2021/10/07 02:39:25;;;;;;;20.00;7.68;;;11.50;99.90;;;;;;5095091;28;20058;-75
2021/10/07 02:41:50;;;;;;;42.40;7.63;;;11.40;99.90;;;;;;5094952;28;20032;-75
2021/10/07 02:44:16;;;;;;;29.33;8.55;;;11.40;99.90;;;;;;5094698;28;20032;-75
2021/10/07 02:46:42;;;;;;;38.30;8.02;;;11.40;99.90;;;;;;5077800;28;20115;-75
2021/10/07 02:49:07;;;;;;;34.78;8.20;;;11.40;99.90;;;;;;5077769;28;20023;-75
2021/10/07 02:51:33;;;;;;;43.30;8.45;;;11.40;99.90;;;;;;5094516;28;20107;-76
2021/10/07 02:53:59;;;;;;;34.00;7.78;;;11.40;99.90;;;;;;5094338;28;20028;-76
2021/10/07 02:56:24;;;;;;;42.78;7.63;;;11.40;99.90;;;;;;5077687;28;20422;-76
2021/10/07 02:58:50;;;;;;;63.15;7.65;;;11.40;99.90;;;;;;5094410;28;20073;-76
2021/10/07 03:01:16;;;;;;;40.38;7.97;;;11.40;99.90;;;;;;5077284;28;20102;-76
2021/10/07 03:03:41;;;;;;;42.60;7.28;;;11.40;99.90;;;;;;5077307;28;20031;-76
2021/10/07 03:06:07;;;;;;;50.10;8.30;;;11.30;99.90;;;;;;5093881;28;20035;-79
2021/10/07 03:08:32;;;;;;;40.70;7.00;;;11.40;99.90;;;;;;5067330;28;20032;-79
2021/10/07 03:10:58;;;;;;;36.65;7.43;;;11.40;99.90;;;;;;5074301;28;20052;-79
2021/10/07 03:13:24;;;;;;;50.05;7.25;;;11.40;99.90;;;;;;5073892;28;20028;-79
2021/10/07 03:15:50;;;;;;;47.78;6.88;;;11.40;99.90;;;;;;5075513;28;20489;-79
2021/10/07 03:18:16;;;;;;;41.25;6.65;;;11.40;99.90;;;;;;5090847;28;20036;-79
2021/10/07 03:20:42;;;;;;;53.05;7.10;;;11.40;99.90;;;;;;5075469;28;20102;-78
2021/10/07 03:23:08;;;;;;;49.83;7.53;;;11.40;99.90;;;;;;5075363;28;20028;-78
2021/10/07 03:25:34;;;;;;;62.65;7.97;;;11.40;99.90;;;;;;5074014;28;20032;-78
2021/10/07 03:28:00;;;;;;;36.83;6.80;;;11.20;99.90;;;;;;5073682;28;20277;-78
2021/10/07 03:30:26;;;;;;;68.57;7.80;;;11.30;99.90;;;;;;5090948;28;20023;-78
2021/10/07 03:32:51;;;;;;;30.88;7.28;;;11.30;99.90;;;;;;5073749;28;20024;-79
2021/10/07 03:35:17;;;;;;;51.65;8.18;;;11.20;99.90;;;;;;5084385;28;20024;-78
2021/10/07 03:37:43;;;;;;;36.03;7.75;;;11.20;99.90;;;;;;5073398;28;20483;-78
2021/10/07 03:40:10;;;;;;;51.63;7.93;;;11.20;99.90;;;;;;5073105;28;20425;-78
2021/10/07 03:42:37;;;;;;;27.83;6.77;;;11.10;99.90;;;;;;5073424;28;20476;-78
2021/10/07 03:45:04;;;;;;;40.47;8.20;;;11.10;99.90;;;;;;5080821;28;20046;-78
2021/10/07 03:47:30;;;;;;;37.38;8.05;;;11.10;99.90;;;;;;5073907;28;20086;-78
2021/10/07 03:49:57;;;;;;;47.57;8.10;;;11.00;99.90;;;;;;5072963;28;20465;-78
2021/10/07 03:52:24;;;;;;;92.03;10.10;;;11.00;99.90;;;;;;5073917;28;20023;-78
2021/10/07 03:54:50;;;;;;;71.15;9.50;;;11.00;99.90;;;;;;5056193;28;20024;-78
2021/10/07 03:57:15;;;;;;;56.75;8.88;;;11.00;99.90;;;;;;5074043;28;20032;-78
2021/10/07 03:59:41;;;;;;;71.82;9.07;;;10.90;99.90;;;;;;5072767;28;20105;-78
2021/10/07 04:02:07;;;;;;;88.97;8.83;;;10.90;99.90;;;;;;5072568;28;20372;-78
2021/10/07 04:04:32;;;;;;;62.75;8.35;;;10.90;99.90;;;;;;5056075;28;20037;-78
2021/10/07 04:06:58;;;;;;;96.78;8.85;;;10.90;99.90;;;;;;5072526;28;20020;-78
2021/10/07 04:09:24;;;;;;;58.27;7.83;;;10.90;99.90;;;;;;5073879;28;20016;-78
2021/10/07 04:11:49;;;;;;;76.60;8.15;;;10.80;99.90;;;;;;5055944;28;20464;-79
2021/10/07 04:14:15;;;;;;;58.47;8.00;;;10.90;99.90;;;;;;5072586;28;20025;-78
2021/10/07 04:16:40;;;;;;;71.68;7.60;;;10.80;99.90;;;;;;5072469;28;20051;-78
2021/10/07 04:19:06;;;;;;;70.13;7.77;;;10.90;99.90;;;;;;5074177;28;20416;-78
2021/10/07 04:21:32;;;;;;;45.33;7.83;;;10.90;99.90;;;;;;5072423;28;20103;-78
2021/10/07 04:23:57;;;;;;;65.30;8.33;;;10.80;99.90;;;;;;5072383;28;20025;-78
2021/10/07 04:26:23;;;;;;;57.35;7.53;;;10.80;99.90;;;;;;5054992;28;20052;-78
2021/10/07 04:28:49;;;;;;;34.73;8.17;;;10.80;99.90;;;;;;5073136;28;20041;-78
2021/10/07 04:31:14;;;;;;;32.07;7.27;;;10.80;99.90;;;;;;5073043;28;20490;-78
2021/10/07 04:33:40;;;;;;;38.85;7.78;;;10.90;99.90;;;;;;5055793;28;20484;-78
2021/10/07 04:36:05;;;;;;;40.63;8.47;;;10.90;99.90;;;;;;5073815;28;20024;-78
2021/10/07 04:38:31;;;;;;;44.63;8.50;;;10.80;99.90;;;;;;5055887;28;20052;-78
2021/10/07 04:40:57;;;;;;;27.07;7.60;;;10.80;99.90;;;;;;5072598;28;20060;-78
2021/10/07 04:43:22;;;;;;;32.23;8.20;;;10.80;99.90;;;;;;5064728;28;20480;-79
2021/10/07 04:45:48;;;;;;;30.93;8.27;;;10.80;99.90;;;;;;5092389;28;20035;-78
2021/10/07 04:48:14;;;;;;;27.42;7.40;;;10.80;99.90;;;;;;5074068;28;20423;-79
2021/10/07 04:50:40;;;;;;;27.40;8.13;;;10.80;99.90;;;;;;5062692;28;20020;-78
2021/10/07 04:53:06;;;;;;;21.47;7.70;;;10.80;99.90;;;;;;5091982;28;20127;-78
2021/10/07 04:55:31;;;;;;;36.37;8.10;;;10.80;99.90;;;;;;5092090;28;20487;-78
2021/10/07 04:57:57;;;;;;;26.60;7.70;;;10.80;99.90;;;;;;5063084;28;20477;-78
2021/10/07 05:00:23;;;;;;;75.27;9.13;;;10.80;99.90;;;;;;5088846;28;20028;-79
2021/10/07 05:02:48;;;;;;;58.83;8.25;;;10.70;99.90;;;;;;5078910;28;20016;-79
2021/10/07 05:05:14;;;;;;;59.90;8.02;;;10.70;99.90;;;;;;5091958;28;20036;-79
2021/10/07 05:07:39;;;;;;;42.85;7.68;;;10.80;99.90;;;;;;5075158;28;20365;-78
2021/10/07 05:10:09;;;;;;;86.03;8.32;;;10.70;99.90;;;;;;5092431;28;20373;-79
2021/10/07 05:12:35;;;;;;;85.88;8.48;;;10.80;99.90;;;;;;5092542;28;20024;-79
2021/10/07 05:15:02;;;;;;;55.37;8.00;;;10.70;99.90;;;;;;5093198;28;20013;-79
2021/10/07 05:17:27;;;;;;;102.65;8.35;;;10.70;99.90;;;;;;5086809;28;20034;-78
2021/10/07 05:19:53;;;;;;;83.40;8.03;;;10.70;99.90;;;;;;5091912;28;20107;-79
2021/10/07 05:22:19;;;;;;;65.43;7.33;;;10.70;99.90;;;;;;5091721;28;20064;-79
2021/10/07 05:24:44;;;;;;;60.30;6.87;;;10.70;99.90;;;;;;5093132;28;20068;-78
2021/10/07 05:27:12;;;;;;;104.93;8.32;;;10.70;99.90;;;;;;5069720;28;20072;-79
2021/10/07 05:29:37;;;;;;;66.07;7.20;;;10.60;99.80;;;;;;5082894;28;20028;-79
2021/10/07 05:32:03;;;;;;;56.17;7.50;;;10.60;99.80;;;;;;5075234;28;20365;-78
2021/10/07 05:34:29;;;;;;;35.20;7.43;;;10.60;99.80;;;;;;5058309;28;20077;-79
2021/10/07 05:36:54;;;;;;;29.37;7.83;;;10.60;99.80;;;;;;5076438;28;20043;-79
2021/10/07 05:39:20;;;;;;;47.80;6.78;;;10.60;99.80;;;;;;5094624;28;20066;-79
2021/10/07 05:41:46;;;;;;;49.07;7.63;;;10.50;99.90;;;;;;5058542;28;20496;-79
2021/10/07 05:44:11;;;;;;;55.03;6.63;;;10.50;99.80;;;;;;5075367;28;20099;-79
2021/10/07 05:46:38;;;;;;;65.20;7.63;;;10.60;99.80;;;;;;5075293;28;20029;-79
2021/10/07 05:49:05;;;;;;;41.07;7.13;;;10.50;99.70;;;;;;5076404;28;20036;-79
2021/10/07 05:51:31;;;;;;;47.67;7.03;;;10.50;99.70;;;;;;5058575;28;20128;-79
2021/10/07 05:53:57;;;;;;;65.37;7.33;;;10.50;99.80;;;;;;5076109;28;20020;-78
2021/10/07 05:56:23;;;;;;;60.87;7.00;;;10.50;99.80;;;;;;5091969;28;20484;-79
2021/10/07 05:58:48;;;;;;;37.97;6.50;;;10.60;99.80;;;;;;5075037;28;20025;-79
2021/10/07 06:01:14;;;;;;;26.23;5.97;;;10.40;99.80;;;;;;5058382;28;20060;-80
2021/10/07 06:03:40;;;;;;;23.73;6.27;;;10.50;99.90;;;;;;5058359;28;20044;-80
2021/10/07 06:06:05;;;;;;;66.77;7.80;;;10.50;99.90;;;;;;5075004;28;20056;-80
2021/10/07 06:08:31;;;;;;;38.47;7.17;;;10.50;99.90;;;;;;5075951;28;20036;-80
2021/10/07 06:10:57;;;;;;;59.50;9.23;;;10.50;99.90;;;;;;5075091;28;20024;-80
2021/10/07 06:13:22;;;;;;;35.57;5.93;;;10.50;99.90;;;;;;5074653;28;20028;-81
2021/10/07 06:15:49;;;;;;;44.87;6.50;;;10.50;99.90;;;;;;5075739;28;20025;-81
2021/10/07 06:18:15;;;;;;;39.93;6.43;;;10.50;99.90;;;;;;5059661;28;20481;-81
2021/10/07 06:20:41;;;;;;;28.23;6.13;;;10.50;99.90;;;;;;5075078;28;20142;-81
2021/10/07 06:23:08;;;;;;;22.13;6.70;;;10.40;99.90;;;;;;5057866;28;20037;-80
2021/10/07 06:25:35;;;;;;;22.00;7.03;;;10.50;99.90;;;;;;5073779;28;20029;-77
2021/10/07 06:28:03;;;;;;;27.38;6.25;;;10.60;99.90;;;;;;5075332;28;20044;-81
2021/10/07 06:30:28;;;;;;;25.67;6.13;;;10.60;99.90;;;;;;5058001;28;20120;-81
2021/10/07 06:32:54;;;;;;;25.90;5.83;;;10.60;99.90;;;;;;5074462;28;20528;-81
2021/10/07 06:35:20;;;;;;;31.23;6.17;;;10.60;99.90;;;;;;5074448;28;20233;-81
2021/10/07 06:37:45;;;;;;;32.70;5.60;;;10.60;99.90;;;;;;5059947;28;20477;-80
2021/10/07 06:40:11;;;;;;;21.27;5.67;;;10.70;99.90;;;;;;5089501;28;20032;-80
2021/10/07 06:42:37;;;;;;;65.53;6.10;;;10.70;99.90;;;;;;5075714;28;20029;-81
2021/10/07 06:45:05;;;;;;;25.95;5.80;;;10.70;99.90;;;;;;5057830;28;20031;-82
2021/10/07 06:47:32;;;;;;;39.17;5.78;;;10.70;99.90;;;;;;5040928;28;20510;-82
2021/10/07 06:49:58;;;;;;;63.95;6.38;;;10.70;99.90;;;;;;5074789;28;20108;-80
2021/10/07 06:52:24;;;;;;;53.17;6.00;;;10.70;99.90;;;;;;5073915;28;20112;-81
2021/10/07 06:54:50;;;;;;;52.38;5.70;;;10.80;99.90;;;;;;5094281;28;20052;-81
2021/10/07 06:57:16;;;;;;;25.95;5.50;;;10.70;99.90;;;;;;5094882;28;20511;-81
2021/10/07 06:59:41;;;;;;;76.15;7.20;;;10.80;99.90;;;;;;5077943;28;20036;-81
2021/10/07 07:02:07;;;;;;;41.75;5.35;;;10.80;99.90;;;;;;5094036;28;20036;-81
2021/10/07 07:04:33;;;;;;;35.03;5.03;;;10.90;99.90;;;;;;5060519;28;20043;-81
2021/10/07 07:06:58;;;;;;;29.90;5.63;;;10.90;99.90;;;;;;5093899;28;20032;-81
2021/10/07 07:09:24;;;;;;;46.47;6.28;;;10.90;99.90;;;;;;5077134;28;20024;-81
2021/10/07 07:11:50;;;;;;;28.17;5.70;;;10.90;99.90;;;;;;5077117;28;20035;-81
2021/10/07 07:14:17;;;;;;;21.20;5.40;;;11.00;99.90;;;;;;5094117;28;20036;-81
2021/10/07 07:16:43;;;;;;;21.83;6.47;;;11.00;99.90;;;;;;5094135;28;20133;-81
2021/10/07 07:19:09;;;;;;;31.60;6.13;;;11.00;99.90;;;;;;5060428;28;20060;-81
2021/10/07 07:21:35;;;;;;;26.00;6.55;;;11.10;99.90;;;;;;5094106;28;20081;-80
2021/10/07 07:24:02;;;;;;;24.13;6.28;;;11.10;99.90;;;;;;5077128;28;20040;-80
2021/10/07 07:26:30;;;;;;;44.15;6.63;;;11.10;99.90;;;;;;5093392;28;20074;-80
2021/10/07 07:28:56;;;;;;;36.70;7.32;;;11.20;99.90;;;;;;5076875;28;20037;-80
2021/10/07 07:31:23;;;;;;;26.25;6.43;;;11.20;99.90;;;;;;5076750;28;20081;-80
2021/10/07 07:33:49;;;;;;;33.20;7.00;;;11.20;99.90;;;;;;5093618;28;20020;-80
2021/10/07 07:36:16;;;;;;;53.47;6.28;;;11.20;99.80;;;;;;5093390;28;20430;-80
2021/10/07 07:38:42;;;;;;;40.63;5.60;;;11.20;99.80;;;;;;5093492;28;20464;-81
2021/10/07 07:41:10;;;;;;;38.15;6.45;;;11.30;99.90;;;;;;5093418;28;20120;-80
2021/10/07 07:43:36;;;;;;;60.58;6.53;;;11.30;99.80;;;;;;5093618;28;20032;-81
2021/10/07 07:46:01;;;;;;;60.78;7.30;;;11.40;99.80;;;;;;5094643;28;20032;-80
2021/10/07 07:48:27;;;;;;;54.67;7.05;;;11.40;99.80;;;;;;5093154;28;20027;-80
2021/10/07 07:50:53;;;;;;;18.88;6.40;;;11.40;99.70;;;;;;5076052;28;20031;-81
2021/10/07 07:53:18;;;;;;;25.00;6.07;;;11.50;99.90;;;;;;5076337;28;20025;-81
2021/10/07 07:55:44;;;;;;;48.95;6.68;;;11.50;99.80;;;;;;5076119;28;20024;-81
2021/10/07 07:58:11;;;;;;;30.23;6.00;;;11.60;99.80;;;;;;5076150;28;20028;-80
2021/10/07 08:00:37;;;;;;;30.63;6.35;;;11.70;99.80;;;;;;5093174;28;20035;-81
2021/10/07 08:03:03;;;;;;;37.58;6.25;;;11.60;99.70;;;;;;5076338;28;20028;-81
2021/10/07 08:05:28;;;;;;;14.65;5.78;;;11.70;99.80;;;;;;5093303;28;20027;-81
2021/10/07 08:07:54;;;;;;;30.17;7.15;;;11.70;99.80;;;;;;5059500;28;20036;-82
2021/10/07 08:10:21;;;;;;;25.05;6.82;;;11.80;99.70;;;;;;5059647;28;20456;-81
2021/10/07 08:12:47;;;;;;;33.30;7.82;;;11.90;99.60;;;;;;5092993;28;20035;-81
2021/10/07 08:15:13;;;;;;;18.30;6.32;;;11.90;99.50;;;;;;5092911;28;20422;-80
2021/10/07 08:17:39;;;;;;;12.80;7.20;;;11.90;99.50;;;;;;5093378;28;20028;-81
2021/10/07 08:20:07;;;;;;;13.90;7.30;;;12.00;99.50;;;;;;5075700;28;20028;-81
2021/10/07 08:22:33;;;;;;;17.88;7.13;;;12.00;99.50;;;;;;5092256;28;20028;-81
2021/10/07 08:24:58;;;;;;;28.80;7.35;;;12.00;99.50;;;;;;5092655;28;20062;-81
2021/10/07 08:27:26;;;;;;;15.98;7.07;;;12.10;99.50;;;;;;5092249;28;20449;-80
2021/10/07 08:29:56;;;;;;;38.65;8.48;;;12.20;99.50;;;;;;5075943;28;20439;-81
2021/10/07 08:32:23;;;;;;;34.80;8.60;;;12.20;99.40;;;;;;5092522;28;20056;-81
2021/10/07 08:34:49;;;;;;;19.48;8.30;;;12.30;99.40;;;;;;5092652;28;20028;-81
2021/10/07 08:37:15;;;;;;;33.55;8.57;;;12.30;99.30;;;;;;5092315;28;20036;-80
2021/10/07 08:39:40;;;;;;;30.25;8.77;;;12.30;99.40;;;;;;5092533;28;20491;-81
2021/10/07 08:42:06;;;;;;;16.25;7.85;;;12.40;99.40;;;;;;5058811;28;20028;-80
2021/10/07 08:44:32;;;;;;;22.80;8.68;;;12.40;99.40;;;;;;5092338;28;20028;-80
2021/10/07 08:46:58;;;;;;;14.93;8.20;;;12.40;99.40;;;;;;5075445;28;20488;-78
2021/10/07 08:49:27;;;;;;;23.85;8.73;;;12.50;99.30;;;;;;5075501;28;20031;-79
2021/10/07 08:51:53;;;;;;;16.73;7.78;;;12.60;99.20;;;;;;5059445;28;20051;-79
2021/10/07 08:54:19;;;;;;;15.57;9.85;;;12.60;99.20;;;;;;5092209;28;20464;-79
2021/10/07 08:56:45;;;;;;;18.98;10.63;;;12.70;99.60;;;;;;5085220;28;20028;-79
2021/10/07 08:59:11;;;;;;;18.85;12.23;;;12.70;99.20;;;;;;5086118;28;20176;-81
2021/10/07 09:01:42;;;;;;;19.33;12.68;;;12.80;99.10;;;;;;5055217;28;20066;-82
2021/10/07 09:04:25;;;;;;;16.63;10.23;;;12.90;99.20;;;;;;5079663;28;20110;-82
2021/10/07 09:06:50;;;;;;;16.90;10.40;;;13.00;99.30;;;;;;5071807;28;20033;-81
2021/10/07 09:09:17;;;;;;;20.40;11.30;;;13.20;99.20;;;;;;5071767;28;20029;-81
2021/10/07 09:11:55;;;;;;;20.58;11.90;;;13.20;99.40;;;;;;5074541;28;20102;-81
2021/10/07 09:14:33;;;;;;;20.27;11.63;;;13.30;99.10;;;;;;5075902;28;20031;-82
2021/10/07 09:17:00;;;;;;;21.15;11.27;;;13.40;99.10;;;;;;5075897;28;20099;-80
2021/10/07 09:19:36;;;;;;;24.33;11.35;;;13.50;99.10;;;;;;5059447;28;20033;-81
2021/10/07 09:22:18;;;;;;;16.08;10.25;;;13.60;99.00;;;;;;5075751;28;20024;-81
2021/10/07 09:24:55;;;;;;;16.42;10.82;;;13.60;99.00;;;;;;5077203;28;20020;-81
2021/10/07 09:27:29;;;;;;;17.55;11.65;;;13.80;99.00;;;;;;5076686;28;20408;-81
2021/10/07 09:30:07;;;;;;;17.30;11.50;;;13.90;98.40;;;;;;5059378;28;20032;-81
2021/10/07 09:32:44;;;;;;;15.80;9.88;;;13.90;98.20;;;;;;5077059;28;20021;-81
2021/10/07 09:35:16;;;;;;;15.63;9.90;;;13.90;98.10;;;;;;5075609;28;20073;-81
2021/10/07 09:37:56;;;;;;;15.18;10.15;;;13.90;98.00;;;;;;5076930;28;20096;-80
2021/10/07 09:40:25;;;;;;;16.42;9.27;;;14.00;98.10;;;;;;5059546;28;20173;-81
2021/10/07 09:42:57;;;;;;;15.40;9.68;;;14.00;98.00;;;;;;5075375;28;20013;-85
2021/10/07 09:45:27;;;;;;;16.60;10.43;;;14.00;97.90;;;;;;5075421;28;20066;-80
2021/10/07 09:47:55;;;;;;;14.98;10.25;;;14.10;97.50;;;;;;5075051;28;20099;-81
2021/10/07 09:50:29;;;;;;;14.50;9.45;;;14.10;97.40;;;;;;5075530;28;20008;-81
2021/10/07 09:53:05;;;;;;;13.43;9.48;;;14.10;97.40;;;;;;5075037;28;20534;-80
2021/10/07 09:55:37;;;;;;;14.52;10.35;;;14.20;97.20;;;;;;5075407;28;20024;-80
2021/10/07 09:58:09;;;;;;;13.45;9.85;;;14.20;97.10;;;;;;5074930;28;20052;-81
2021/10/07 10:00:37;;;;;;;12.77;8.20;;;14.20;96.70;;;;;;5075086;28;20052;-81
2021/10/07 10:03:05;;;;;;;14.07;10.32;;;14.10;96.70;;;;;;5076278;28;20032;-81
2021/10/07 10:05:32;;;;;;;13.30;9.88;;;14.00;96.60;;;;;;5075329;28;20119;-80
2021/10/07 10:07:58;;;;;;;13.27;9.35;;;14.00;96.60;;;;;;5058489;28;20450;-80
2021/10/07 10:10:25;;;;;;;15.38;11.20;;;14.00;96.60;;;;;;5058728;28;20764;-81
2021/10/07 10:12:51;;;;;;;13.50;10.32;;;14.00;96.60;;;;;;5058127;28;20037;-82
2021/10/07 10:15:20;;;;;;;15.50;10.85;;;14.00;96.70;;;;;;5093487;28;20074;-82
2021/10/07 10:17:45;;;;;;;13.98;9.68;;;14.00;96.90;;;;;;5078744;28;20057;-81
2021/10/07 10:20:24;;;;;;;14.93;11.50;;;14.00;96.80;;;;;;5078040;28;20073;-81
2021/10/07 10:23:10;;;;;;;14.98;10.55;;;14.00;96.50;;;;;;5093867;28;20418;-81
2021/10/07 10:25:54;;;;;;;13.50;9.65;;;14.00;96.60;;;;;;5094998;28;20380;-81
2021/10/07 10:28:38;;;;;;;12.27;8.70;;;14.00;96.60;;;;;;5095586;28;20431;-82
2021/10/07 10:31:06;;;;;;;15.45;10.23;;;14.10;96.70;;;;;;5096383;28;20020;-83
2021/10/07 10:33:34;;;;;;;14.27;10.43;;;14.20;96.60;;;;;;5096442;28;20472;-84
2021/10/07 10:36:01;;;;;;;14.20;11.07;;;14.20;96.30;;;;;;5096643;28;20020;-84
2021/10/07 10:38:28;;;;;;;13.98;10.52;;;14.30;96.00;;;;;;5078436;28;20024;-84
2021/10/07 10:41:07;;;;;;;12.15;9.55;;;14.30;95.90;;;;;;5079825;28;20039;-81
2021/10/07 10:43:34;;;;;;;11.80;8.32;;;14.30;95.80;;;;;;5097059;28;20036;-82
2021/10/07 10:46:06;;;;;;;11.23;8.20;;;14.30;95.90;;;;;;5078615;28;20388;-81
2021/10/07 10:48:58;;;;;;;12.77;9.18;;;14.30;96.00;;;;;;5095833;28;20024;-82
2021/10/07 10:51:31;;;;;;;12.88;9.18;;;14.40;96.20;;;;;;5090580;28;20490;-82
2021/10/07 10:54:08;;;;;;;13.30;9.57;;;14.40;96.10;;;;;;5096215;28;20090;-76
2021/10/07 10:56:42;;;;;;;14.73;9.20;;;14.40;96.10;;;;;;5094356;28;20047;-76
2021/10/07 10:59:21;;;;;;;12.47;9.17;;;14.40;96.10;;;;;;5094309;28;20556;-76
2021/10/07 11:02:15;;;;;;;12.48;9.55;;;14.50;96.20;;;;;;5094458;28;20035;-77
2021/10/07 11:04:43;;;;;;;14.98;10.63;;;14.50;96.00;;;;;;5076172;28;20152;-77
2021/10/07 11:07:25;;;;;;;14.82;10.50;;;14.60;95.70;;;;;;5076157;28;20029;-77
2021/10/07 11:09:57;;;;;;;16.42;12.23;;;14.60;95.50;;;;;;5092739;28;20032;-78
2021/10/07 11:12:24;;;;;;;15.60;11.43;;;14.60;95.20;;;;;;5079390;28;20502;-77
2021/10/07 11:14:50;;;;;;;16.85;11.20;;;14.50;94.90;;;;;;5076456;28;20468;-77
2021/10/07 11:17:18;;;;;;;15.40;10.90;;;14.50;95.00;;;;;;5067194;28;20055;-78
2021/10/07 11:19:46;;;;;;;15.30;11.45;;;14.50;95.00;;;;;;5062833;28;20020;-77
2021/10/07 11:22:12;;;;;;;16.58;12.52;;;14.50;95.00;;;;;;5095361;28;20055;-77
2021/10/07 11:24:51;;;;;;;17.73;11.85;;;14.40;94.80;;;;;;5092132;28;20490;-77
2021/10/07 11:27:33;;;;;;;16.52;11.38;;;14.40;95.30;;;;;;5042591;28;20042;-77
2021/10/07 11:29:59;;;;;;;14.98;10.55;;;14.40;95.10;;;;;;5078459;28;20462;-77
2021/10/07 11:32:25;;;;;;;12.95;9.63;;;14.40;95.10;;;;;;5093812;28;20039;-78
2021/10/07 11:35:06;;;;;;;14.63;11.02;;;14.50;95.20;;;;;;5059870;28;20480;-78
2021/10/07 11:37:54;;;;;;;14.50;10.75;;;14.50;95.00;;;;;;5074735;28;20024;-77
2021/10/07 11:40:32;;;;;;;14.95;10.07;;;14.60;95.00;;;;;;5073351;28;20051;-77
2021/10/07 11:43:01;;;;;;;13.82;9.80;;;14.60;95.00;;;;;;5073034;28;20021;-77
2021/10/07 11:45:45;;;;;;;14.30;9.70;;;14.60;95.10;;;;;;5088166;28;20028;-77
2021/10/07 11:48:12;;;;;;;12.63;9.07;;;14.60;95.20;;;;;;5073016;28;20112;-77
2021/10/07 11:50:45;;;;;;;13.25;9.65;;;14.70;95.20;;;;;;5069304;28;20025;-77
2021/10/07 11:53:13;;;;;;;16.48;10.00;;;14.70;95.30;;;;;;5085538;28;20073;-78
2021/10/07 11:55:45;;;;;;;13.60;9.30;;;14.80;95.30;;;;;;5088922;28;20025;-78
2021/10/07 11:58:11;;;;;;;18.90;10.40;;;14.90;95.20;;;;;;5085741;28;20024;-77
2021/10/07 12:00:41;;;;;;;15.30;10.85;;;14.90;95.20;;;;;;5076845;28;20036;-77
2021/10/07 12:03:09;;;;;;;15.63;9.55;;;15.10;95.30;;;;;;5087880;28;20028;-77
2021/10/07 12:05:35;;;;;;;11.63;8.43;;;15.20;95.40;;;;;;5084489;28;20117;-77
2021/10/07 12:08:09;;;;;;;14.32;9.70;;;15.40;95.20;;;;;;5080997;28;20083;-77
2021/10/07 12:10:36;;;;;;;13.50;10.18;;;15.60;95.00;;;;;;5091359;28;20035;-78
2021/10/07 12:13:10;;;;;;;14.05;9.90;;;15.80;94.50;;;;;;5092798;28;20023;-77
2021/10/07 12:15:38;;;;;;;13.75;9.52;;;16.00;93.90;;;;;;5091427;28;20065;-77
2021/10/07 12:18:05;;;;;;;13.65;8.80;;;16.10;93.80;;;;;;5091986;28;20107;-78
2021/10/07 12:20:32;;;;;;;12.15;9.23;;;16.30;93.70;;;;;;5092521;28;20027;-77
2021/10/07 12:23:05;;;;;;;12.05;8.85;;;16.40;92.70;;;;;;5072560;28;20036;-77
2021/10/07 12:25:42;;;;;;;11.63;7.40;;;16.50;92.50;;;;;;5092619;28;20027;-77
2021/10/07 12:28:18;;;;;;;11.10;7.85;;;16.70;92.70;;;;;;5075798;28;20032;-77
2021/10/07 12:31:05;;;;;;;10.25;6.82;;;16.80;92.80;;;;;;5093885;28;20103;-77
2021/10/07 12:33:32;;;;;;;9.95;7.57;;;17.00;92.70;;;;;;5092644;28;20047;-77
2021/10/07 12:36:00;;;;;;;9.77;6.55;;;17.20;92.60;;;;;;5092189;28;20020;-77
2021/10/07 12:38:26;;;;;;;9.27;6.15;;;17.80;93.20;;;;;;5092212;28;20065;-78
2021/10/07 12:40:59;;;;;;;7.28;5.03;;;18.50;92.60;;;;;;5075900;28;20048;-78
2021/10/07 12:43:26;;;;;;;6.63;4.32;;;19.40;91.10;;;;;;5092532;28;20032;-79